createdAt,value
2024-01-26T00:00:52.083Z,66.36
2024-01-26T00:03:54.506Z,66.24
2024-01-26T00:06:56.465Z,67.03
2024-01-26T00:09:58.361Z,66.74
2024-01-26T00:13:01.453Z,66.25
2024-01-26T00:16:03.774Z,66.79
2024-01-26T00:19:06.234Z,66.80
2024-01-26T00:22:07.916Z,66.64
2024-01-26T00:25:09.929Z,66.63
2024-01-26T00:28:13.033Z,66.92
2024-01-26T00:31:15.564Z,66.80
2024-01-26T00:34:17.245Z,66.52
2024-01-26T00:37:18.977Z,66.82
2024-01-26T00:40:20.619Z,66.23
2024-01-26T00:43:23.647Z,66.45
2024-01-26T00:46:25.343Z,66.90
2024-01-26T00:49:34.526Z,66.80
2024-01-26T00:52:43.537Z,66.57
2024-01-26T00:55:45.257Z,66.71
2024-01-26T00:58:48.272Z,66.41
2024-01-26T01:01:50.033Z,66.72
2024-01-26T01:04:51.746Z,66.50
2024-01-26T01:07:53.397Z,66.96
2024-01-26T01:10:55.022Z,67.08
2024-01-26T01:13:58.057Z,66.64
2024-01-26T01:16:59.792Z,67.08
2024-01-26T01:20:01.462Z,67.16
2024-01-26T01:23:03.338Z,66.99
2024-01-26T01:26:04.978Z,66.94
2024-01-26T01:29:08.023Z,66.71
2024-01-26T01:32:09.725Z,67.20
2024-01-26T01:35:12.318Z,67.50
2024-01-26T01:38:13.953Z,67.51
2024-01-26T01:41:15.969Z,67.58
2024-01-26T01:44:19.021Z,67.31
2024-01-26T01:47:20.684Z,67.34
2024-01-26T01:50:22.374Z,66.83
2024-01-26T01:53:25.573Z,67.10
2024-01-26T01:56:29.962Z,67.19
2024-01-26T01:59:33.489Z,66.86
2024-01-26T02:02:35.214Z,67.30
2024-01-26T02:05:36.965Z,67.41
2024-01-26T02:08:38.721Z,67.69
2024-01-26T02:11:40.436Z,67.48
2024-01-26T02:14:43.449Z,68.12
2024-01-26T02:17:45.136Z,67.84
2024-01-26T02:20:52.365Z,67.66
2024-01-26T02:23:58.429Z,67.82
2024-01-26T02:27:00.186Z,67.97
2024-01-26T02:30:01.960Z,67.42
2024-01-26T02:33:04.257Z,67.16
2024-01-26T02:36:07.085Z,67.49
2024-01-26T02:39:10.200Z,67.38
2024-01-26T02:42:12.078Z,67.38
2024-01-26T02:45:14.011Z,67.40
2024-01-26T02:48:16.028Z,67.74
2024-01-26T02:51:17.833Z,67.83
2024-01-26T02:54:23.579Z,67.82
2024-01-26T02:57:25.665Z,67.80
2024-01-26T03:00:27.264Z,68.25
2024-01-26T03:03:28.997Z,68.30
2024-01-26T03:06:30.795Z,68.26
2024-01-26T03:09:33.822Z,68.22
2024-01-26T03:12:35.480Z,68.54
2024-01-26T03:15:37.100Z,68.34
2024-01-26T03:18:38.933Z,68.57
2024-01-26T03:21:44.831Z,68.15
2024-01-26T03:24:47.821Z,68.91
2024-01-26T03:27:49.637Z,68.68
2024-01-26T03:30:51.316Z,68.75
2024-01-26T03:33:53.081Z,68.29
2024-01-26T03:36:54.780Z,68.48
2024-01-26T03:39:57.879Z,68.72
2024-01-26T03:43:00.426Z,68.73
2024-01-26T03:46:03.395Z,69.45
2024-01-26T03:49:05.161Z,69.09
2024-01-26T03:52:06.983Z,68.90
2024-01-26T03:55:10.317Z,68.84
2024-01-26T03:58:12.010Z,68.50
2024-01-26T04:01:13.668Z,68.54
2024-01-26T04:04:15.409Z,68.49
2024-01-26T04:07:17.082Z,67.71
2024-01-26T04:10:20.375Z,68.54
2024-01-26T04:13:22.051Z,69.54
2024-01-26T04:16:23.711Z,70.02
2024-01-26T04:19:25.480Z,70.52
2024-01-26T04:22:27.254Z,70.20
2024-01-26T04:25:30.314Z,70.66
2024-01-26T04:28:34.180Z,70.77
2024-01-26T04:31:41.843Z,70.82
2024-01-26T04:34:43.628Z,71.09
2024-01-26T04:37:45.362Z,71.18
2024-01-26T04:40:48.438Z,70.74
2024-01-26T04:43:50.093Z,71.23
2024-01-26T04:46:51.753Z,71.21
2024-01-26T04:49:53.474Z,71.02
2024-01-26T04:52:55.177Z,71.63
2024-01-26T04:55:58.184Z,71.64
2024-01-26T04:58:59.865Z,71.88
2024-01-26T05:02:01.538Z,71.21
2024-01-26T05:05:03.345Z,71.74
2024-01-26T05:08:05.184Z,71.26
2024-01-26T05:11:08.249Z,71.50
2024-01-26T05:14:09.908Z,71.55
2024-01-26T05:17:11.573Z,71.60
2024-01-26T05:20:13.237Z,72.01
2024-01-26T05:23:14.898Z,71.56
2024-01-26T05:26:17.933Z,71.74
2024-01-26T05:29:19.602Z,71.69
2024-01-26T05:32:21.218Z,71.17
2024-01-26T05:35:22.876Z,71.84
2024-01-26T05:38:24.601Z,71.52
2024-01-26T05:41:27.642Z,71.22
2024-01-26T05:44:29.352Z,70.99
2024-01-26T05:47:31.114Z,71.21
2024-01-26T05:50:32.808Z,71.90
2024-01-26T05:53:34.545Z,71.92
2024-01-26T05:56:41.450Z,71.92
2024-01-26T05:59:43.243Z,72.12
2024-01-26T06:02:44.935Z,71.89
2024-01-26T06:05:46.734Z,72.54
2024-01-26T06:08:48.530Z,72.65
2024-01-26T06:11:51.586Z,72.45
2024-01-26T06:14:53.280Z,72.33
2024-01-26T06:17:55.050Z,72.44
2024-01-26T06:20:56.873Z,72.67
2024-01-26T06:23:58.633Z,72.47
2024-01-26T06:27:01.705Z,72.44
2024-01-26T06:30:03.799Z,72.54
2024-01-26T06:33:05.786Z,72.74
2024-01-26T06:36:07.883Z,72.86
2024-01-26T06:39:10.636Z,73.13
2024-01-26T06:42:14.074Z,73.22
2024-01-26T06:45:15.826Z,73.33
2024-01-26T06:48:17.592Z,73.26
2024-01-26T06:51:19.434Z,73.50
2024-01-26T06:54:21.173Z,73.87
2024-01-26T06:57:24.239Z,73.88
2024-01-26T07:00:25.968Z,73.20
2024-01-26T07:03:27.841Z,71.95
2024-01-26T07:06:29.637Z,71.94
2024-01-26T07:09:31.452Z,71.73
2024-01-26T07:12:34.513Z,71.08
2024-01-26T07:15:36.172Z,71.34
2024-01-26T07:18:37.981Z,71.32
2024-01-26T07:21:39.758Z,70.36
2024-01-26T07:24:41.432Z,71.23
2024-01-26T07:27:44.482Z,71.74
2024-01-26T07:30:46.163Z,71.46
2024-01-26T07:33:47.953Z,71.26
2024-01-26T07:36:49.653Z,70.71
2024-01-26T07:39:51.344Z,70.17
2024-01-26T07:42:54.388Z,69.85
2024-01-26T07:45:56.046Z,69.31
2024-01-26T07:48:57.826Z,69.30
2024-01-26T07:51:59.546Z,68.86
2024-01-26T07:55:01.208Z,68.54
2024-01-26T07:58:04.499Z,68.55
2024-01-26T08:01:06.169Z,68.08
2024-01-26T08:04:07.860Z,67.39
2024-01-26T08:07:09.720Z,67.31
2024-01-26T08:10:11.899Z,67.81
2024-01-26T08:13:16.180Z,67.75
2024-01-26T08:16:18.369Z,67.00
2024-01-26T08:19:20.420Z,66.68
2024-01-26T08:22:22.327Z,66.54
2024-01-26T08:25:24.084Z,66.21
2024-01-26T08:28:27.116Z,66.33
2024-01-26T08:31:28.802Z,66.43
2024-01-26T08:34:34.043Z,65.94
2024-01-26T08:37:36.252Z,65.80
2024-01-26T08:40:37.879Z,65.26
2024-01-26T08:43:40.928Z,64.68
2024-01-26T08:46:42.604Z,64.57
2024-01-26T08:49:44.393Z,64.75
2024-01-26T08:52:46.050Z,64.26
2024-01-26T08:55:47.735Z,63.70
2024-01-26T08:58:50.913Z,63.16
2024-01-26T09:01:52.591Z,63.34
2024-01-26T09:04:54.221Z,63.13
2024-01-26T09:07:56.086Z,62.10
2024-01-26T09:10:57.753Z,62.91
2024-01-26T09:14:00.752Z,62.07
2024-01-26T09:17:02.413Z,62.14
2024-01-26T09:20:04.764Z,62.45
2024-01-26T09:23:06.457Z,61.43
2024-01-26T09:26:08.114Z,60.77
2024-01-26T09:29:13.901Z,60.63
2024-01-26T09:32:15.638Z,60.65
2024-01-26T09:35:17.373Z,60.07
2024-01-26T09:38:19.068Z,60.01
2024-01-26T09:41:20.766Z,60.31
2024-01-26T09:44:23.903Z,60.49
2024-01-26T09:47:26.931Z,60.28
2024-01-26T09:50:28.882Z,59.50
2024-01-26T09:53:32.891Z,59.00
2024-01-26T09:56:37.629Z,59.08
2024-01-26T09:59:40.685Z,58.13
2024-01-26T10:02:42.786Z,58.18
2024-01-26T10:05:44.730Z,58.03
2024-01-26T10:08:46.481Z,57.75
2024-01-26T10:11:48.164Z,57.44
2024-01-26T10:15:02.207Z,57.75
2024-01-26T10:18:05.208Z,57.39
2024-01-26T10:21:06.950Z,56.56
2024-01-26T10:24:08.863Z,57.25
2024-01-26T10:27:11.370Z,56.67
2024-01-26T10:30:14.834Z,56.00
2024-01-26T10:33:17.205Z,55.71
2024-01-26T10:36:20.943Z,55.13
2024-01-26T10:39:24.269Z,54.85
2024-01-26T10:42:27.331Z,54.48
2024-01-26T10:45:30.643Z,54.61
2024-01-26T10:48:33.180Z,54.80
2024-01-26T10:51:37.387Z,53.69
2024-01-26T10:54:39.856Z,54.21
2024-01-26T10:57:41.526Z,54.42
2024-01-26T11:00:44.726Z,54.90
2024-01-26T11:03:46.718Z,54.79
2024-01-26T11:06:48.585Z,54.76
2024-01-26T11:09:51.758Z,54.68
2024-01-26T11:13:03.252Z,54.92
2024-01-26T11:16:08.101Z,54.52
2024-01-26T11:19:21.788Z,54.66
2024-01-26T11:22:23.471Z,53.98
2024-01-26T11:25:25.148Z,53.94
2024-01-26T11:28:27.296Z,54.21
2024-01-26T11:31:30.731Z,54.30
2024-01-26T11:34:32.433Z,54.53
2024-01-26T11:37:34.302Z,54.16
2024-01-26T11:40:36.145Z,53.60
2024-01-26T11:43:44.343Z,53.84
2024-01-26T11:46:48.101Z,53.61
2024-01-26T11:49:49.913Z,53.52
2024-01-26T11:52:51.769Z,52.50
2024-01-26T11:55:53.491Z,52.83
2024-01-26T11:58:55.963Z,53.09
2024-01-26T12:01:59.053Z,52.30
2024-01-26T12:05:00.877Z,51.88
2024-01-26T12:08:03.285Z,52.69
2024-01-26T12:11:05.083Z,52.04
2024-01-26T12:14:07.425Z,51.83
2024-01-26T12:17:10.856Z,51.44
2024-01-26T12:20:13.325Z,51.37
2024-01-26T12:23:18.259Z,50.51
2024-01-26T12:26:19.984Z,50.21
2024-01-26T12:29:23.308Z,50.26
2024-01-26T12:32:27.816Z,51.01
2024-01-26T12:35:33.023Z,49.98
2024-01-26T12:38:34.782Z,50.03
2024-01-26T12:41:36.568Z,50.20
2024-01-26T12:44:38.310Z,49.92
2024-01-26T12:47:41.387Z,50.40
2024-01-26T12:50:43.163Z,51.07
2024-01-26T12:53:44.917Z,50.74
2024-01-26T12:56:46.624Z,50.90
2024-01-26T12:59:48.320Z,50.86
2024-01-26T13:02:51.445Z,50.63
2024-01-26T13:05:53.742Z,51.40
2024-01-26T13:08:55.901Z,52.04
2024-01-26T13:11:59.132Z,51.71
2024-01-26T13:15:01.498Z,51.90
2024-01-26T13:18:08.971Z,51.75
2024-01-26T13:21:16.378Z,52.41
2024-01-26T13:24:18.737Z,52.31
2024-01-26T13:27:23.634Z,52.21
2024-01-26T13:30:28.359Z,53.25
2024-01-26T13:33:32.567Z,52.18
2024-01-26T13:36:34.349Z,51.70
2024-01-26T13:39:36.128Z,51.49
2024-01-26T13:42:37.859Z,51.11
2024-01-26T13:45:39.571Z,51.62
2024-01-26T13:48:42.794Z,51.54
2024-01-26T13:51:44.523Z,50.77
2024-01-26T13:54:46.171Z,51.18
2024-01-26T13:57:47.780Z,50.66
2024-01-26T14:00:49.591Z,51.54
2024-01-26T14:03:52.871Z,51.64
2024-01-26T14:06:55.175Z,51.46
2024-01-26T14:09:56.860Z,51.88
2024-01-26T14:12:58.512Z,51.77
2024-01-26T14:16:00.229Z,52.26
2024-01-26T14:19:03.367Z,52.39
2024-01-26T14:22:05.155Z,51.73
2024-01-26T14:25:08.068Z,51.58
2024-01-26T14:28:09.732Z,51.70
2024-01-26T14:31:11.379Z,51.14
2024-01-26T14:34:14.554Z,51.56
2024-01-26T14:37:17.346Z,50.86
2024-01-26T14:40:19.327Z,50.90
2024-01-26T14:43:21.090Z,50.76
2024-01-26T14:46:22.752Z,50.90
2024-01-26T14:49:25.849Z,50.96
2024-01-26T14:52:27.692Z,51.57
2024-01-26T14:55:31.898Z,51.90
2024-01-26T14:58:34.279Z,52.34
2024-01-26T15:01:37.543Z,52.04
2024-01-26T15:04:42.047Z,52.41
2024-01-26T15:07:47.946Z,51.92
2024-01-26T15:10:52.431Z,51.70
2024-01-26T15:13:54.060Z,52.19
2024-01-26T15:16:55.730Z,52.21
2024-01-26T15:19:59.053Z,51.87
2024-01-26T15:23:00.934Z,52.72
2024-01-26T15:26:04.001Z,52.33
2024-01-26T15:29:05.661Z,51.69
2024-01-26T15:32:07.759Z,50.89
2024-01-26T15:35:13.053Z,50.59
2024-01-26T15:38:14.820Z,51.59
2024-01-26T15:41:16.560Z,50.17
2024-01-26T15:44:18.354Z,51.31
2024-01-26T15:47:19.986Z,51.56
2024-01-26T15:50:23.013Z,51.44
2024-01-26T15:53:24.704Z,51.55
2024-01-26T15:56:26.408Z,51.54
2024-01-26T15:59:28.074Z,51.65
2024-01-26T16:02:29.679Z,51.98
2024-01-26T16:05:32.745Z,51.61
2024-01-26T16:08:36.812Z,52.55
2024-01-26T16:11:38.488Z,53.36
2024-01-26T16:14:41.100Z,53.75
2024-01-26T16:17:42.828Z,53.83
2024-01-26T16:20:46.124Z,53.90
2024-01-26T16:23:47.981Z,54.27
2024-01-26T16:26:49.690Z,54.86
2024-01-26T16:29:51.404Z,55.41
2024-01-26T16:32:53.238Z,55.56
2024-01-26T16:35:56.408Z,56.34
2024-01-26T16:38:58.272Z,56.15
2024-01-26T16:41:59.986Z,57.65
2024-01-26T16:45:01.878Z,57.63
2024-01-26T16:48:04.147Z,58.60
2024-01-26T16:51:07.413Z,58.76
2024-01-26T16:54:09.420Z,59.83
2024-01-26T16:57:11.124Z,59.75
2024-01-26T17:00:13.954Z,60.73
2024-01-26T17:03:15.767Z,60.58
2024-01-26T17:06:18.862Z,61.40
2024-01-26T17:09:20.623Z,60.38
2024-01-26T17:12:22.424Z,60.81
2024-01-26T17:15:24.194Z,61.33
2024-01-26T17:18:26.663Z,61.42
2024-01-26T17:21:29.879Z,61.36
2024-01-26T17:24:31.615Z,61.37
2024-01-26T17:27:34.027Z,61.21
2024-01-26T17:30:35.856Z,62.14
2024-01-26T17:33:37.704Z,61.92
2024-01-26T17:36:40.822Z,63.06
2024-01-26T17:39:51.839Z,62.32
2024-01-26T17:43:01.205Z,61.55
2024-01-26T17:46:02.864Z,62.00
2024-01-26T17:49:04.760Z,61.47
2024-01-26T17:52:07.949Z,61.29
2024-01-26T17:55:09.683Z,60.66
2024-01-26T17:58:11.353Z,61.75
2024-01-26T18:01:13.034Z,61.23
2024-01-26T18:04:14.935Z,62.06
2024-01-26T18:07:17.981Z,62.36
2024-01-26T18:10:21.008Z,62.39
2024-01-26T18:13:23.908Z,62.06
2024-01-26T18:16:25.544Z,62.29
2024-01-26T18:19:27.371Z,62.00
2024-01-26T18:22:30.513Z,61.59
2024-01-26T18:25:32.154Z,61.43
2024-01-26T18:28:33.800Z,62.01
2024-01-26T18:31:35.494Z,62.24
2024-01-26T18:34:37.415Z,61.85
2024-01-26T18:37:40.438Z,62.10
2024-01-26T18:40:42.073Z,61.39
2024-01-26T18:43:43.721Z,61.60
2024-01-26T18:46:45.579Z,61.27
2024-01-26T18:49:47.545Z,62.70
2024-01-26T18:52:51.032Z,61.82
2024-01-26T18:55:52.884Z,61.42
2024-01-26T18:58:57.252Z,60.91
2024-01-26T19:01:59.997Z,61.15
2024-01-26T19:05:02.311Z,60.78
2024-01-26T19:08:07.674Z,60.50
2024-01-26T19:11:10.177Z,60.95
2024-01-26T19:14:12.246Z,61.34
2024-01-26T19:17:14.093Z,62.38
2024-01-26T19:20:16.573Z,62.59
2024-01-26T19:23:20.180Z,62.77
2024-01-26T19:26:23.359Z,63.41
2024-01-26T19:29:25.200Z,63.19
2024-01-26T19:32:26.934Z,63.64
2024-01-26T19:35:28.599Z,63.83
2024-01-26T19:38:31.717Z,63.84
2024-01-26T19:41:33.406Z,64.46
2024-01-26T19:44:35.934Z,64.02
2024-01-26T19:47:37.591Z,65.13
2024-01-26T19:50:39.326Z,64.21
2024-01-26T19:53:42.707Z,65.03
2024-01-26T19:56:44.494Z,66.48
2024-01-26T19:59:46.205Z,67.01
2024-01-26T20:02:47.999Z,67.46
2024-01-26T20:05:49.850Z,68.83
2024-01-26T20:08:53.608Z,69.28
2024-01-26T20:11:55.595Z,69.80
2024-01-26T20:14:58.731Z,70.50
2024-01-26T20:18:01.227Z,71.61
2024-01-26T20:21:03.224Z,71.26
2024-01-26T20:24:08.309Z,70.91
2024-01-26T20:27:10.997Z,71.84
2024-01-26T20:30:13.440Z,71.97
2024-01-26T20:33:15.398Z,71.42
2024-01-26T20:36:18.159Z,70.97
2024-01-26T20:39:21.640Z,71.76
2024-01-26T20:42:23.615Z,71.50
2024-01-26T20:45:26.311Z,71.18
2024-01-26T20:48:29.330Z,71.93
2024-01-26T20:51:31.328Z,72.67
2024-01-26T20:54:34.682Z,72.08
2024-01-26T20:57:37.083Z,71.66
2024-01-26T21:00:40.132Z,72.83
2024-01-26T21:03:42.466Z,72.53
2024-01-26T21:06:44.521Z,72.19
2024-01-26T21:09:48.075Z,72.05
2024-01-26T21:12:49.882Z,72.54
2024-01-26T21:15:51.696Z,72.48
2024-01-26T21:18:54.465Z,73.05
2024-01-26T21:21:56.286Z,73.33
2024-01-26T21:24:59.480Z,74.49
2024-01-26T21:28:01.218Z,74.81
2024-01-26T21:31:03.011Z,75.59
2024-01-26T21:34:05.161Z,75.92
2024-01-26T21:37:07.595Z,76.58
2024-01-26T21:40:12.619Z,78.95
2024-01-26T21:43:14.754Z,80.09
2024-01-26T21:46:16.894Z,79.79
2024-01-26T21:49:20.067Z,81.07
2024-01-26T21:52:24.638Z,80.98
2024-01-26T21:55:27.896Z,81.64
2024-01-26T21:58:29.547Z,82.64
2024-01-26T22:01:31.337Z,82.67
2024-01-26T22:04:33.080Z,81.58
2024-01-26T22:07:34.841Z,82.37
2024-01-26T22:10:37.872Z,83.10
2024-01-26T22:13:39.569Z,82.99
2024-01-26T22:16:41.317Z,84.01
2024-01-26T22:19:43.100Z,84.21
2024-01-26T22:22:45.044Z,85.00
2024-01-26T22:25:48.053Z,85.26
2024-01-26T22:28:50.135Z,84.34
2024-01-26T22:31:51.809Z,83.71
2024-01-26T22:34:53.518Z,85.59
2024-01-26T22:37:55.267Z,85.37
2024-01-26T22:40:58.335Z,87.41
2024-01-26T22:43:59.983Z,86.81
2024-01-26T22:47:01.636Z,86.02
2024-01-26T22:50:03.542Z,88.10
2024-01-26T22:53:05.202Z,89.56
2024-01-26T22:56:08.348Z,90.62
2024-01-26T22:59:09.996Z,90.11
2024-01-26T23:02:11.620Z,90.63
2024-01-26T23:05:13.400Z,90.36
2024-01-26T23:08:15.071Z,90.47
2024-01-26T23:11:18.408Z,90.54
2024-01-26T23:14:20.038Z,91.05
2024-01-26T23:17:21.675Z,91.83
2024-01-26T23:20:23.338Z,92.77
2024-01-26T23:23:24.982Z,93.80
2024-01-26T23:26:28.022Z,93.93
2024-01-26T23:29:29.693Z,94.77
2024-01-26T23:32:31.364Z,95.43
2024-01-26T23:35:33.448Z,96.28
2024-01-26T23:38:35.307Z,98.11
2024-01-26T23:41:38.292Z,98.68
2024-01-26T23:44:39.981Z,99.54
2024-01-26T23:47:42.114Z,99.61
2024-01-26T23:50:43.829Z,99.26
2024-01-26T23:53:45.553Z,99.29
2024-01-26T23:56:48.686Z,98.60
2024-01-26T23:59:50.423Z,98.63
